• Join FlightAware (Why Join?)
  • Login
  • US Flag 
Gobble Gobble! 
12:41AM EST


 

Airport Tracker/Info


-or-


 

Live Flight TrackerFlight Track Log ✈ PDT4207 ✈ 22-Feb-2014 ✈ KPHL - KBGM

Flight Track Log - Related Links

Times and Time Zones

All times are in EST time to prevent confusion due to time zone crossing. See the PDT4207 flight status page for this flight to view local times or setup timezone preferences in your user account.

Time Position Orientation Groundspeed Altitude Reporting Facility
EST Latitude Longitude Course Direction KTS MPH feet Rate Location/Type
09:57PM 39.9000 -75.2333 311° West 123 142 500  Level Philadelphia TRACON
09:57PM 39.9000 -75.2667 270° West 123 142 1,400 1,260 Climbing Philadelphia TRACON
09:58PM 39.9333 -75.3000 323° Northwest 150 173 2,700 1,260 Climbing Philadelphia TRACON
09:59PM 40.0228 -75.3728 323° Northwest  Level FlightAware Approximate
09:59PM 39.9500 -75.3500 294° West 157 181 4,000  Level Philadelphia TRACON
10:00PM 40.0754 -75.4210 339° North  Level FlightAware Approximate
10:00PM 39.9653 -75.3778 306° West 171 197 4,800  Level New York Center
10:01PM 40.1228 -75.4728 323° Northwest  Level FlightAware Approximate
10:01PM 40.0061 -75.3994 338° Northwest 179 206 6,300  Level New York Center
10:02PM 40.1757 -75.5135 311° West  Level FlightAware Approximate
10:02PM 40.0492 -75.4186 341° North 161 185 7,900  Level New York Center
10:03PM 40.0814 -75.4425 330° Northwest 142 163 9,300 1,260 Climbing New York Center
10:04PM 40.1200 -75.4694 332° Northwest 137 158 10,500 1,080 Climbing New York Center
10:05PM 40.1503 -75.4933 329° Northwest 137 158 11,500 960 Climbing New York Center
10:06PM 40.1800 -75.5306 316° Northwest 132 152 12,500 960 Climbing New York Center
10:07PM 40.2103 -75.5572 326° Northwest 132 152 13,500 720 Climbing New York Center
10:08PM 40.2383 -75.5864 322° Northwest 144 166 14,000 240 Climbing New York Center
10:09PM 40.2653 -75.6400 303° West 149 171 14,000  Level New York Center
10:10PM 40.2986 -75.6886 312° West 171 197 14,000  Level New York Center
10:11PM 40.3364 -75.7347 317° Northwest 178 205 14,000  Level New York Center
10:12PM 40.3633 -75.7831 306° West 178 205 14,000  Level New York Center
10:13PM 40.3967 -75.8344 310° West 183 211 14,000  Level New York Center
10:14PM 40.4650 -75.8450 353° North 196 226 14,000  Level New York Center
10:15PM 40.5272 -75.8550 353° North 210 242 14,000  Level New York Center
10:16PM 40.5917 -75.8572 359° North 218 251 14,000  Level New York Center
10:17PM 40.6522 -75.8506 North 229 264 14,000  Level New York Center
10:18PM 40.7164 -75.8608 353° North 235 270 14,000  Level New York Center
10:19PM 40.7864 -75.8797 348° North 230 265 14,000  Level New York Center
10:20PM 40.8531 -75.8819 359° North 236 272 14,100  Climbing New York Center
10:21PM 40.9114 -75.8836 359° North 236 272 14,100  Level New York Center
10:22PM 40.9758 -75.8886 357° North 236 272 14,100 -60 Level New York Center
10:23PM 41.0422 -75.8908 359° North 236 272 14,000 -60 Descending New York Center
10:24PM 41.1172 -75.8908 360° North 236 272 14,000  Level New York Center
10:25PM 41.1839 -75.8958 357° North 236 272 14,000  Level New York Center
10:26PM 41.2500 -75.9039 355° North 236 272 14,000  Level New York Center
10:27PM 41.3167 -75.9089 357° North 236 272 14,000  Level New York Center
10:28PM 41.3850 -75.9142 357° North 236 272 14,000  Level New York Center
10:29PM 41.4492 -75.9244 353° North 236 272 14,000  Level New York Center
10:30PM 41.5156 -75.9294 357° North 236 272 14,000 -240 Level New York Center
10:31PM 41.5864 -75.9322 358° North 242 278 13,600 -900 Descending New York Center
10:32PM 41.6528 -75.9375 357° North 257 296 12,200 -1,440 Descending New York Center
10:33PM 41.7250 -75.9486 353° North 257 296 10,800 -1,500 Descending New York Center
10:34PM 41.8058 -75.9578 355° North 257 296 9,200 -1,500 Descending New York Center
10:35PM 41.8825 -75.9664 355° North 263 303 7,900 -1,380 Descending New York Center
10:36PM 41.9531 -75.9747 355° North 263 303 6,500 -1,500 Descending New York Center
10:37PM 42.0156 -75.9714 North 250 288 4,900 -1,200 Descending New York Center
10:38PM 42.0744 -75.9592 North 229 264 4,100 -780 Descending New York Center
10:39PM 42.1225 -75.9544 North 200 230 3,400 -780 Descending New York Center
10:40PM 42.1639 -75.9578 357° North 164 189 2,600 -840 Descending New York Center